Time;durP1;ratioP1;P1;durP2;ratioP2;P2;SDS_P1;SDS_P2;PMS_P1;PMS_P2;Temp;Humidity;BMP_temperature;BMP_pressure;BME280_temperature;BME280_humidity;BME280_pressure;Samples;Min_cycle;Max_cycle;Signal;HPM_P1;HPM_P2
2023/07/20 00:03:58;;;;;;;8.86;3.74;;;;;;;17.89;81.92;100036.56;4986412;57;1147168;-69
2023/07/20 00:09:04;;;;;;;6.08;3.75;;;;;;;17.74;83.28;100047.19;5034374;57;1138682;-69
2023/07/20 00:14:09;;;;;;;7.22;3.45;;;;;;;17.82;84.83;100045.82;5061504;57;1139123;-69
2023/07/20 00:19:16;;;;;;;11.45;6.85;;;;;;;18.11;85.78;100042.94;4959835;58;1138461;-71
2023/07/20 00:24:22;;;;;;;5.87;4.28;;;;;;;18.23;85.22;100040.16;5025528;57;1140701;-71
2023/07/20 00:29:27;;;;;;;7.45;3.67;;;;;;;18.16;84.91;100041.91;5018710;57;1138838;-71
2023/07/20 00:34:33;;;;;;;9.95;3.55;;;;;;;18.04;85.01;100048.16;5038530;57;1139114;-69
2023/07/20 00:39:39;;;;;;;11.28;4.62;;;;;;;17.97;85.17;100039.20;5018644;57;1138788;-72
2023/07/20 00:44:44;;;;;;;11.30;4.35;;;;;;;17.98;85.68;100037.36;4968657;57;1141015;-73
2023/07/20 00:49:51;;;;;;;10.28;3.87;;;;;;;18.19;86.76;100050.39;4988052;57;1140765;-72
2023/07/20 00:54:58;;;;;;;5.55;3.40;;;;;;;18.40;86.60;100048.89;4994791;57;1140703;-69
2023/07/20 01:00:04;;;;;;;6.74;3.48;;;;;;;18.37;85.63;100052.75;5055610;57;1138691;-74
2023/07/20 01:05:12;;;;;;;5.22;3.72;;;;;;;18.30;85.69;100057.69;5074763;57;1138887;-69
2023/07/20 01:10:28;;;;;;;10.60;3.72;;;;;;;18.19;86.41;100053.56;5018504;57;1138889;-71
2023/07/20 01:15:35;;;;;;;13.08;3.87;;;;;;;18.10;87.59;100050.64;4972423;57;1140716;-70
2023/07/20 01:20:41;;;;;;;18.23;3.80;;;;;;;18.03;88.49;100049.67;4960810;57;1140870;-68
2023/07/20 01:26:30;;;;;;;4.02;3.32;;;;;;;18.11;89.32;100050.97;5029531;57;1140822;-71
2023/07/20 01:31:39;;;;;;;6.67;2.98;;;;;;;18.20;89.25;100045.87;4997006;57;1138920;-68
2023/07/20 01:36:47;;;;;;;6.55;2.92;;;;;;;18.21;89.27;100039.00;4994275;57;1138942;-70
2023/07/20 01:41:53;;;;;;;3.52;3.22;;;;;;;18.19;89.25;100049.05;5038791;57;1138641;-71
2023/07/20 01:46:58;;;;;;;11.03;3.95;;;;;;;18.20;89.88;100032.48;4991886;57;1138698;-69
2023/07/20 01:52:05;;;;;;;10.22;3.34;;;;;;;18.25;90.15;100039.48;4987294;57;1140735;-72
2023/07/20 01:57:10;;;;;;;6.08;3.55;;;;;;;18.12;89.46;100040.09;5040089;57;1141370;-72
2023/07/20 02:02:16;;;;;;;10.13;4.03;;;;;;;17.99;89.84;100039.02;5030347;57;1138869;-70
2023/07/20 02:07:23;;;;;;;5.58;3.37;;;;;;;17.97;90.33;100030.34;5024071;57;1140854;-70
2023/07/20 02:12:29;;;;;;;9.20;3.47;;;;;;;18.00;90.37;100045.53;5043337;57;1139029;-70
2023/07/20 02:17:35;;;;;;;6.58;3.50;;;;;;;17.93;90.41;100045.41;5064091;57;1138918;-70
2023/07/20 02:22:42;;;;;;;14.70;3.92;;;;;;;17.86;90.48;100029.75;4999562;57;1138814;-69
2023/07/20 02:27:47;;;;;;;9.23;3.08;;;;;;;17.83;90.97;100039.47;5060679;57;1140925;-71
2023/07/20 02:32:53;;;;;;;10.82;4.33;;;;;;;17.83;91.19;100041.30;5067336;57;1139061;-72
2023/07/20 02:38:00;;;;;;;9.75;4.18;;;;;;;17.77;91.65;100033.47;5055310;57;1140969;-68
2023/07/20 02:43:06;;;;;;;9.57;3.30;;;;;;;17.68;92.13;100043.91;5054185;57;1139467;-72
2023/07/20 02:48:13;;;;;;;12.25;3.95;;;;;;;17.62;92.84;100052.59;5032156;57;1138771;-73
2023/07/20 02:53:18;;;;;;;10.05;4.28;;;;;;;17.46;94.08;100059.36;5003899;57;1140859;-73
2023/07/20 02:58:24;;;;;;;5.33;3.20;;;;;;;17.31;95.70;100064.60;5054629;56;1141027;-71
2023/07/20 03:03:30;;;;;;;6.70;3.63;;;;;;;17.18;96.05;100062.98;5049748;56;1138885;-72
2023/07/20 03:08:36;;;;;;;6.90;3.33;;;;;;;17.12;97.14;100058.31;5058130;57;1138790;-71
2023/07/20 03:13:42;;;;;;;5.43;3.27;;;;;;;17.11;97.88;100065.50;5043108;57;1138711;-71
2023/07/20 03:18:48;;;;;;;13.83;4.13;;;;;;;17.05;98.32;100064.03;5041584;57;1138934;-70
2023/07/20 03:23:53;;;;;;;11.18;4.10;;;;;;;17.09;99.45;100054.68;5047520;57;1141000;-72
2023/07/20 03:28:59;;;;;;;5.07;3.77;;;;;;;17.07;100.00;100054.02;5010538;57;1141039;-70
2023/07/20 03:34:06;;;;;;;6.77;3.50;;;;;;;17.00;100.00;100062.38;5010198;57;1140973;-71
2023/07/20 03:39:11;;;;;;;12.13;5.63;;;;;;;16.83;100.00;100061.08;5033430;57;1140953;-71
2023/07/20 03:44:17;;;;;;;6.50;3.33;;;;;;;16.83;100.00;100061.08;4992148;57;1142948;-74
2023/07/20 03:49:23;;;;;;;7.57;3.30;;;;;;;16.77;100.00;100063.61;5002525;57;1141093;-73
2023/07/20 03:54:28;;;;;;;9.70;4.00;;;;;;;16.80;100.00;100060.61;5040387;56;1140841;-69
2023/07/20 03:59:34;;;;;;;9.17;4.33;;;;;;;16.77;100.00;100056.44;5043425;56;1140922;-73
2023/07/20 04:04:41;;;;;;;5.70;4.20;;;;;;;16.71;100.00;100052.26;5044347;56;1140670;-71
2023/07/20 04:09:46;;;;;;;7.20;3.73;;;;;;;16.66;100.00;100055.42;5046038;57;1141113;-70
2023/07/20 04:14:52;;;;;;;4.77;3.23;;;;;;;16.66;100.00;100062.60;4985570;58;1140930;-72
2023/07/20 04:19:58;;;;;;;7.17;4.10;;;;;;;16.61;100.00;100064.44;5045025;57;1141168;-73
2023/07/20 04:25:04;;;;;;;4.73;3.77;;;;;;;16.57;100.00;100059.59;4967156;58;1140800;-72
2023/07/20 04:30:12;;;;;;;6.10;4.07;;;;;;;16.53;100.00;100065.27;5066883;57;1141040;-73
2023/07/20 04:35:39;;;;;;;9.50;4.33;;;;;;;16.58;100.00;100063.43;4982578;57;1140944;-71
2023/07/20 04:40:49;;;;;;;5.53;3.80;;;;;;;16.66;100.00;100059.94;5064852;56;1140853;-71
2023/07/20 04:45:55;;;;;;;9.47;4.77;;;;;;;16.70;100.00;100061.27;4995092;57;1141158;-71
2023/07/20 04:51:01;;;;;;;9.00;4.77;;;;;;;16.70;100.00;100056.77;5005199;56;1248962;-75
2023/07/20 04:56:07;;;;;;;9.83;4.20;;;;;;;16.69;100.00;100052.42;5023335;56;1141038;-73
2023/07/20 05:01:13;;;;;;;6.63;4.53;;;;;;;16.74;100.00;100050.59;5048179;56;1140780;-72
2023/07/20 05:06:19;;;;;;;10.63;5.70;;;;;;;16.81;100.00;100058.23;5070878;56;1140936;-70
2023/07/20 05:11:25;;;;;;;7.03;5.33;;;;;;;16.77;100.00;100059.60;5046197;56;1263770;-70
2023/07/20 05:16:31;;;;;;;7.43;4.43;;;;;;;16.81;100.00;100076.93;5061314;56;1140826;-71
2023/07/20 05:21:38;;;;;;;7.60;5.10;;;;;;;16.74;100.00;100074.13;4988574;56;1141051;-71
2023/07/20 05:26:43;;;;;;;5.87;4.57;;;;;;;16.74;100.00;100072.79;5043218;56;1140866;-74
2023/07/20 05:31:49;;;;;;;5.80;4.10;;;;;;;16.81;100.00;100079.10;5039082;56;1140766;-72
2023/07/20 05:36:55;;;;;;;9.67;4.57;;;;;;;16.92;100.00;100083.78;5026467;56;1140988;-75
2023/07/20 05:42:01;;;;;;;7.87;3.83;;;;;;;16.92;100.00;100085.95;5078684;56;1140831;-73
2023/07/20 05:47:07;;;;;;;5.73;4.60;;;;;;;17.11;100.00;100080.73;5034028;56;1141150;-75
2023/07/20 05:52:14;;;;;;;8.80;4.60;;;;;;;17.29;100.00;100085.32;4985300;57;1141069;-71
2023/07/20 05:57:19;;;;;;;4.87;3.65;;;;;;;17.42;100.00;100092.28;5054469;56;1140863;-72
2023/07/20 06:02:25;;;;;;;4.37;2.90;;;;;;;17.49;100.00;100095.11;5045302;56;1140724;-74
2023/07/20 06:07:31;;;;;;;5.97;3.17;;;;;;;17.54;100.00;100092.25;5070022;56;1140738;-73
2023/07/20 06:12:36;;;;;;;7.13;3.93;;;;;;;17.56;100.00;100093.42;5041636;57;1141335;-71
2023/07/20 06:17:42;;;;;;;17.67;3.90;;;;;;;17.65;100.00;100092.39;5083122;56;1140793;-70
2023/07/20 06:22:47;;;;;;;6.03;3.80;;;;;;;17.84;100.00;100100.48;5064906;56;1143071;-72
2023/07/20 06:27:53;;;;;;;9.78;3.65;;;;;;;17.90;100.00;100095.75;5043357;56;1141064;-74
2023/07/20 06:32:59;;;;;;;10.90;4.05;;;;;;;18.04;100.00;100098.17;5089855;56;1140832;-72
2023/07/20 06:38:05;;;;;;;4.17;3.52;;;;;;;18.21;100.00;100097.05;5030158;56;1143062;-74
2023/07/20 06:43:11;;;;;;;5.72;3.50;;;;;;;18.38;100.00;100099.94;5026203;57;1140816;-72
2023/07/20 06:48:16;;;;;;;5.20;3.22;;;;;;;18.50;100.00;100095.81;5066864;57;1141218;-69
2023/07/20 06:53:22;;;;;;;7.03;3.42;;;;;;;18.66;100.00;100092.70;5053153;57;1141289;-72
2023/07/20 06:58:27;;;;;;;2.95;2.35;;;;;;;18.85;100.00;100096.20;5051828;57;1141234;-70
2023/07/20 07:03:33;;;;;;;3.90;2.33;;;;;;;19.03;100.00;100094.52;4998769;57;1141175;-72
2023/07/20 07:08:39;;;;;;;3.62;2.45;;;;;;;19.19;100.00;100109.09;5013987;57;1141373;-69
2023/07/20 07:13:46;;;;;;;5.20;3.02;;;;;;;19.36;95.38;100114.59;4963677;57;1141246;-73
2023/07/20 07:18:52;;;;;;;3.77;2.50;;;;;;;19.52;95.30;100110.92;4960871;57;1139308;-75
2023/07/20 07:23:59;;;;;;;3.85;2.30;;;;;;;19.80;93.52;100117.25;4997683;57;1138756;-76
2023/07/20 07:29:05;;;;;;;1.77;1.67;;;;;;;19.76;90.68;100114.62;4989094;57;1138678;-71
2023/07/20 07:34:11;;;;;;;2.00;1.70;;;;;;;19.76;87.98;100107.91;5024242;56;1150112;-71
2023/07/20 07:39:16;;;;;;;2.90;1.82;;;;;;;19.66;87.81;100109.55;5153502;56;1138809;-76
2023/07/20 07:44:22;;;;;;;3.70;2.42;;;;;;;19.62;86.87;100123.52;5055119;56;1138806;-72
2023/07/20 07:49:28;;;;;;;2.20;2.00;;;;;;;19.59;87.47;100119.86;5056147;57;1138828;-72
2023/07/20 07:54:33;;;;;;;2.65;1.42;;;;;;;19.60;86.18;100121.02;5037464;57;1138848;-72
2023/07/20 07:59:39;;;;;;;2.47;1.62;;;;;;;19.75;84.29;100118.31;4993481;56;1138770;-73
2023/07/20 08:04:45;;;;;;;4.92;1.47;;;;;;;19.85;83.01;100124.23;5054354;56;1138825;-69
2023/07/20 08:09:50;;;;;;;2.95;1.65;;;;;;;19.80;81.71;100123.96;5054261;56;1138578;-73
2023/07/20 08:14:56;;;;;;;1.42;1.35;;;;;;;19.66;81.76;100127.50;5074120;57;1138748;-70
2023/07/20 08:20:02;;;;;;;3.05;1.47;;;;;;;19.66;81.76;100127.50;5054279;57;1138825;-72
2023/07/20 08:25:09;;;;;;;3.15;1.47;;;;;;;19.58;81.35;100125.73;4970611;57;1253357;-75
2023/07/20 08:30:15;;;;;;;1.97;1.37;;;;;;;19.60;81.65;100126.89;5026150;57;1138892;-71
2023/07/20 08:35:20;;;;;;;3.20;1.30;;;;;;;19.79;82.51;100137.05;4982124;57;1138627;-73
2023/07/20 08:40:26;;;;;;;4.10;1.23;;;;;;;20.20;83.00;100135.13;5023717;57;1138667;-73
2023/07/20 08:45:35;;;;;;;2.36;1.16;;;;;;;20.35;78.48;100121.97;4968410;57;1138986;-68
2023/07/20 08:50:41;;;;;;;0.98;0.98;;;;;;;20.12;75.60;100129.39;4987723;57;1138976;-71
2023/07/20 08:55:52;;;;;;;2.85;1.42;;;;;;;19.88;77.16;100129.20;4988623;56;1138877;-69
2023/07/20 09:01:00;;;;;;;1.92;1.30;;;;;;;19.75;78.11;100133.59;5048837;56;1138829;-68
2023/07/20 09:06:06;;;;;;;4.42;1.30;;;;;;;19.45;81.30;100134.09;5069401;56;1139102;-73
2023/07/20 09:11:15;;;;;;;9.93;2.35;;;;;;;19.23;82.99;100141.23;5054740;56;1139123;-73
2023/07/20 09:16:20;;;;;;;3.70;1.50;;;;;;;19.16;86.10;100136.27;5050961;56;1139075;-68
2023/07/20 09:21:35;;;;;;;6.50;2.90;;;;;;;19.03;87.13;100142.77;5073686;57;1138777;-72
2023/07/20 09:26:43;;;;;;;6.70;2.92;;;;;;;19.36;89.32;100132.53;5040997;57;1138854;-72
2023/07/20 09:32:04;;;;;;;1.00;1.00;;;;;;;19.69;87.74;100135.19;4995079;57;1138765;-69
2023/07/20 09:37:09;;;;;;;3.67;1.62;;;;;;;19.72;86.09;100140.66;5008036;57;1139308;-70
2023/07/20 09:42:18;;;;;;;9.80;2.77;;;;;;;19.50;87.06;100172.80;4890307;58;1138920;-71
2023/07/20 09:47:26;;;;;;;4.22;2.35;;;;;;;19.26;88.47;100168.98;4969303;58;1138778;-70
2023/07/20 09:52:32;;;;;;;2.30;2.10;;;;;;;18.87;87.13;100162.52;5001972;57;1138987;-66
2023/07/20 09:57:38;;;;;;;4.15;2.20;;;;;;;18.77;90.29;100172.16;5006512;57;1138857;-68
2023/07/20 10:02:46;;;;;;;2.67;1.70;;;;;;;18.93;92.38;100162.63;5051361;57;1138681;-71
2023/07/20 10:07:53;;;;;;;3.00;2.45;;;;;;;19.53;97.65;100148.80;4988456;56;1139151;-68
2023/07/20 10:13:03;;;;;;;2.47;2.27;;;;;;;19.86;96.30;100146.00;5044232;57;1138633;-71
2023/07/20 10:18:25;;;;;;;2.95;2.75;;;;;;;20.06;95.03;100142.22;4888108;59;1138756;-70
2023/07/20 10:23:32;;;;;;;2.60;2.40;;;;;;;20.14;91.00;100142.63;4876473;58;1138819;-70
2023/07/20 10:28:39;;;;;;;3.50;2.90;;;;;;;20.26;95.33;100141.93;4994970;56;1138849;-71
2023/07/20 10:33:46;;;;;;;2.72;2.50;;;;;;;20.56;93.83;100135.12;4900485;59;1138650;-70
2023/07/20 10:38:57;;;;;;;3.62;3.20;;;;;;;20.95;96.68;100144.02;5048736;56;1139020;-71
2023/07/20 10:44:13;;;;;;;2.80;2.50;;;;;;;21.14;88.13;100131.74;5054310;56;1138857;-68
2023/07/20 10:49:26;;;;;;;3.27;2.90;;;;;;;21.12;85.81;100132.45;5074009;56;1138787;-71
2023/07/20 10:54:30;;;;;;;2.17;2.08;;;;;;;21.27;80.60;100123.27;5047150;56;1138955;-69
2023/07/20 10:59:44;;;;;;;1.80;1.70;;;;;;;21.28;78.27;100112.83;5054583;56;1138597;-72
2023/07/20 11:04:48;;;;;;;1.92;1.82;;;;;;;21.44;75.93;100108.98;5057232;56;1138852;-70
2023/07/20 11:09:57;;;;;;;1.65;1.55;;;;;;;21.68;73.09;100104.97;5083677;56;1138819;-68
2023/07/20 11:15:03;;;;;;;1.57;1.47;;;;;;;21.67;75.84;100098.76;5004879;56;1138776;-71
2023/07/20 11:20:12;;;;;;;2.20;1.50;;;;;;;21.85;72.25;100098.69;5039827;56;1138602;-72
2023/07/20 11:25:18;;;;;;;0.90;0.90;;;;;;;21.90;70.60;100096.23;5066199;56;1139162;-69
2023/07/20 11:30:23;;;;;;;2.60;1.00;;;;;;;22.02;67.92;100086.55;5028366;57;1138931;-71
2023/07/20 11:35:29;;;;;;;1.73;1.00;;;;;;;22.29;66.19;100059.99;5032142;57;1138705;-73
2023/07/20 11:40:35;;;;;;;0.70;0.70;;;;;;;22.29;66.19;100059.99;5010942;56;1138849;-73
2023/07/20 11:45:41;;;;;;;1.98;1.02;;;;;;;22.40;64.93;100066.11;5054587;57;1138864;-70
2023/07/20 11:50:47;;;;;;;1.57;1.40;;;;;;;22.70;66.16;100072.42;5015456;57;1138685;-73
2023/07/20 11:55:53;;;;;;;0.85;0.82;;;;;;;23.02;64.32;100068.89;5012063;56;1138865;-71
2023/07/20 12:00:59;;;;;;;1.42;1.10;;;;;;;22.68;61.17;100083.41;5036772;56;1139100;-75
2023/07/20 12:06:12;;;;;;;1.00;1.00;;;;;;;22.19;66.29;100084.31;5027234;57;1139058;-72
2023/07/20 12:11:38;;;;;;;0.67;0.50;;;;;;;21.84;67.64;100091.67;5028874;56;1138850;-71
2023/07/20 12:16:43;;;;;;;0.80;0.80;;;;;;;21.64;68.78;100096.97;5048194;57;1138933;-69
2023/07/20 12:21:49;;;;;;;0.90;0.90;;;;;;;21.47;64.98;100088.41;5052170;56;1138771;-71
2023/07/20 12:26:59;;;;;;;1.00;1.00;;;;;;;21.38;65.64;100090.45;5014444;57;1138718;-68
2023/07/20 12:32:06;;;;;;;1.62;0.90;;;;;;;21.33;65.85;100086.69;5051682;56;1138780;-70
2023/07/20 12:37:11;;;;;;;1.35;0.78;;;;;;;21.17;64.74;100093.19;5061939;56;1138793;-69
2023/07/20 12:42:17;;;;;;;1.98;0.80;;;;;;;20.94;63.76;100127.05;5037784;56;1138833;-71
2023/07/20 12:47:23;;;;;;;0.30;0.25;;;;;;;20.33;66.02;100172.87;5063791;56;1138914;-73
2023/07/20 12:52:28;;;;;;;1.35;0.50;;;;;;;19.55;71.89;100186.50;5004027;56;1138871;-74
2023/07/20 12:57:38;;;;;;;0.82;0.70;;;;;;;18.95;75.39;100190.56;5154585;56;1138522;-72
2023/07/20 13:02:44;;;;;;;0.60;0.57;;;;;;;18.69;79.08;100180.23;5073456;56;1138892;-69
2023/07/20 13:07:50;;;;;;;1.37;0.62;;;;;;;18.77;80.84;100179.36;5082765;56;1138793;-73
2023/07/20 13:12:55;;;;;;;0.40;0.40;;;;;;;18.91;81.38;100171.86;5091796;56;1138638;-73
2023/07/20 13:18:01;;;;;;;0.60;0.60;;;;;;;19.02;81.44;100160.70;5045283;56;1138673;-73
2023/07/20 13:23:07;;;;;;;0.30;0.30;;;;;;;19.27;82.03;100158.08;5002963;56;1138702;-72
2023/07/20 13:28:13;;;;;;;0.40;0.40;;;;;;;19.63;81.78;100164.92;4979434;57;1138881;-71
2023/07/20 13:33:18;;;;;;;0.82;0.50;;;;;;;19.90;81.08;100165.25;4967117;57;1138830;-76
2023/07/20 13:38:24;;;;;;;1.20;1.00;;;;;;;20.11;80.48;100161.28;5032036;57;1138888;-71
2023/07/20 13:43:29;;;;;;;0.40;0.40;;;;;;;20.30;79.45;100156.65;5050868;57;1138827;-72
2023/07/20 13:48:35;;;;;;;0.87;0.87;;;;;;;20.51;76.57;100159.03;5074657;57;1138946;-74
2023/07/20 13:53:40;;;;;;;2.42;0.30;;;;;;;20.65;76.75;100154.10;5051514;57;1138635;-76
2023/07/20 13:58:46;;;;;;;1.40;0.50;;;;;;;20.98;76.41;100157.07;5056026;56;1138830;-72
2023/07/20 14:03:52;;;;;;;1.55;0.47;;;;;;;21.26;74.88;100153.89;5138023;56;1138581;-74
2023/07/20 14:08:57;;;;;;;0.50;0.40;;;;;;;21.45;73.54;100144.80;5028794;56;1138641;-73
2023/07/20 14:14:03;;;;;;;1.00;0.40;;;;;;;21.76;70.82;100157.27;5004843;57;1138602;-74
2023/07/20 14:19:09;;;;;;;2.70;0.45;;;;;;;21.87;68.50;100149.96;5072392;56;1138883;-72
2023/07/20 14:24:14;;;;;;;0.50;0.50;;;;;;;21.89;68.04;100147.07;5044830;56;1139184;-71
2023/07/20 14:29:20;;;;;;;0.60;0.57;;;;;;;21.81;65.11;100156.69;5066207;56;1139108;-71
2023/07/20 14:34:26;;;;;;;2.62;0.70;;;;;;;21.57;64.79;100164.21;5082941;56;1138617;-70
2023/07/20 14:39:31;;;;;;;4.47;1.00;;;;;;;21.14;72.93;100213.77;5067735;56;1138949;-70
2023/07/20 14:44:40;;;;;;;0.88;0.75;;;;;;;19.86;79.93;100234.57;5045520;56;1138893;-74
2023/07/20 14:49:48;;;;;;;0.53;0.53;;;;;;;19.00;82.28;100220.34;5049009;57;1138959;-73
2023/07/20 14:54:54;;;;;;;3.47;0.95;;;;;;;18.71;85.89;100205.52;4980649;56;1138802;-72
2023/07/20 15:00:00;;;;;;;0.55;0.50;;;;;;;18.67;87.97;100202.86;5040956;57;1138886;-70
2023/07/20 15:05:08;;;;;;;3.02;0.80;;;;;;;18.68;88.81;100203.19;5046545;57;1138743;-71
2023/07/20 15:10:14;;;;;;;3.15;0.75;;;;;;;18.77;90.76;100201.62;4995140;57;1138637;-71
2023/07/20 15:15:19;;;;;;;3.40;0.68;;;;;;;18.92;92.58;100198.98;5059162;56;1138723;-70
2023/07/20 15:20:26;;;;;;;2.40;0.90;;;;;;;19.06;94.40;100188.81;5078033;56;1139011;-73
2023/07/20 15:25:32;;;;;;;1.47;0.87;;;;;;;19.25;96.02;100180.73;4969846;57;1138686;-71
2023/07/20 15:30:37;;;;;;;7.30;1.17;;;;;;;19.39;97.69;100183.95;5043816;56;1138997;-70
2023/07/20 15:35:43;;;;;;;1.17;0.50;;;;;;;19.63;98.78;100187.73;5077304;56;1138331;-72
2023/07/20 15:40:54;;;;;;;1.20;0.78;;;;;;;19.92;99.90;100186.87;5042038;57;1138878;-71
2023/07/20 15:46:21;;;;;;;4.03;0.53;;;;;;;20.18;100.00;100180.97;4984335;57;1138894;-71
2023/07/20 15:51:27;;;;;;;0.70;0.70;;;;;;;20.39;99.56;100176.69;4989534;57;1140819;-71
2023/07/20 15:56:32;;;;;;;0.70;0.70;;;;;;;20.57;97.97;100176.58;5000510;57;1138856;-70
2023/07/20 16:01:39;;;;;;;1.57;0.60;;;;;;;20.76;96.00;100171.59;5081197;56;1138712;-72
2023/07/20 16:06:44;;;;;;;3.95;0.82;;;;;;;20.80;94.22;100180.39;5149388;56;1138703;-72
2023/07/20 16:11:50;;;;;;;0.53;0.53;;;;;;;20.91;92.83;100188.47;5129352;56;1138808;-68
2023/07/20 16:16:55;;;;;;;4.20;0.50;;;;;;;20.88;93.23;100177.58;5128506;56;1138599;-70
2023/07/20 16:22:01;;;;;;;2.15;1.12;;;;;;;21.04;93.79;100174.61;4990194;57;1138891;-72
2023/07/20 16:27:07;;;;;;;0.60;0.50;;;;;;;21.08;89.11;100172.37;4993285;57;1138968;-69
2023/07/20 16:32:13;;;;;;;5.05;0.57;;;;;;;20.88;86.43;100180.78;5028254;56;1138776;-72
2023/07/20 16:37:19;;;;;;;0.62;0.40;;;;;;;20.68;87.23;100173.88;5012019;56;1138829;-68
2023/07/20 16:42:24;;;;;;;0.65;0.53;;;;;;;20.77;89.85;100171.91;5021567;57;1138802;-72
2023/07/20 16:47:30;;;;;;;1.50;0.42;;;;;;;20.92;87.07;100168.63;5055401;57;1138637;-69
2023/07/20 16:52:36;;;;;;;0.30;0.30;;;;;;;20.95;82.34;100176.27;5033631;57;1138811;-70
2023/07/20 16:57:41;;;;;;;0.72;0.35;;;;;;;20.85;78.72;100173.09;5043481;57;1138630;-75
2023/07/20 17:02:47;;;;;;;0.40;0.40;;;;;;;20.80;78.51;100175.52;5007221;57;1138838;-71
2023/07/20 17:07:55;;;;;;;0.68;0.40;;;;;;;20.81;79.55;100169.95;5029728;57;1138697;-73
2023/07/20 17:13:00;;;;;;;0.40;0.40;;;;;;;20.77;79.06;100170.56;5051517;57;1138640;-72
2023/07/20 17:18:06;;;;;;;1.22;1.02;;;;;;;20.57;78.94;100170.37;5030333;57;1138806;-70
2023/07/20 17:23:12;;;;;;;0.53;0.45;;;;;;;20.41;79.75;100176.83;5029132;57;1138868;-70
2023/07/20 17:28:18;;;;;;;4.62;0.82;;;;;;;20.32;79.64;100179.26;5051489;57;1138603;-73
2023/07/20 17:33:23;;;;;;;1.50;0.70;;;;;;;20.23;79.74;100175.87;5031781;56;1138651;-73
2023/07/20 17:38:29;;;;;;;3.05;1.30;;;;;;;20.19;79.23;100175.92;5028222;57;1146943;-75
2023/07/20 17:43:34;;;;;;;14.20;6.30;;;;;;;20.18;79.06;100176.11;5024485;57;1138927;-74
2023/07/20 17:48:40;;;;;;;10.57;3.00;;;;;;;20.21;78.77;100176.57;5045817;56;1140915;-73
2023/07/20 17:53:46;;;;;;;1.22;1.22;;;;;;;20.18;77.97;100184.16;5019611;57;1140766;-70
2023/07/20 17:58:52;;;;;;;2.85;1.35;;;;;;;20.13;77.55;100184.75;5018371;57;1138862;-70
2023/07/20 18:03:57;;;;;;;27.17;5.65;;;;;;;20.08;77.51;100191.70;5046239;57;1138575;-73
2023/07/20 18:09:03;;;;;;;5.00;1.72;;;;;;;20.05;77.34;100189.39;5025069;57;1140837;-73
2023/07/20 18:14:08;;;;;;;0.90;0.90;;;;;;;20.00;77.60;100192.15;5034483;56;1138768;-70
2023/07/20 18:19:14;;;;;;;0.65;0.60;;;;;;;19.91;77.35;100195.94;5060736;57;1138779;-70
2023/07/20 18:24:20;;;;;;;0.98;0.50;;;;;;;19.86;77.76;100192.17;5044337;57;1138633;-69
2023/07/20 18:29:26;;;;;;;0.60;0.44;;;;;;;19.78;77.15;100194.94;5041702;56;1138666;-71
2023/07/20 18:34:32;;;;;;;0.45;0.45;;;;;;;19.71;77.61;100195.38;5038429;56;1138818;-74
2023/07/20 18:39:38;;;;;;;0.70;0.70;;;;;;;19.64;77.89;100198.78;5049480;57;1138574;-76
2023/07/20 18:44:43;;;;;;;1.90;1.80;;;;;;;19.58;77.68;100200.86;4990260;57;1138651;-76
2023/07/20 18:49:49;;;;;;;3.10;1.20;;;;;;;19.55;78.02;100199.08;5019207;56;1138905;-72
2023/07/20 18:54:55;;;;;;;1.22;0.85;;;;;;;19.46;78.02;100208.17;5097605;56;1138507;-70
2023/07/20 19:00:01;;;;;;;3.42;2.90;;;;;;;19.38;78.73;100214.98;5031820;57;1138585;-70
2023/07/20 19:05:07;;;;;;;3.17;2.70;;;;;;;19.45;80.25;100217.23;5035976;56;1139052;-73
2023/07/20 19:10:14;;;;;;;2.95;1.98;;;;;;;19.56;81.19;100222.17;5058164;56;1138739;-67
2023/07/20 19:15:19;;;;;;;7.03;4.33;;;;;;;19.65;81.09;100225.94;4965935;58;1138661;-72
2023/07/20 19:20:25;;;;;;;16.35;8.20;;;;;;;19.73;81.08;100227.69;4885631;58;1138802;-69
2023/07/20 19:25:32;;;;;;;23.92;10.60;;;;;;;19.84;82.24;100235.30;4976009;57;1140950;-73
2023/07/20 19:30:38;;;;;;;43.42;18.42;;;;;;;19.90;82.42;100240.41;5062536;56;1143198;-70
2023/07/20 19:35:44;;;;;;;33.45;14.65;;;;;;;19.73;81.42;100245.13;5037135;56;1142854;-72
2023/07/20 19:40:50;;;;;;;24.72;12.78;;;;;;;19.65;82.38;100242.55;5034232;56;1143280;-72
2023/07/20 19:45:55;;;;;;;18.52;10.88;;;;;;;19.65;83.03;100254.12;5049393;56;1143029;-71
2023/07/20 19:51:01;;;;;;;33.45;16.17;;;;;;;19.64;83.41;100250.27;5032616;56;1143540;-72
2023/07/20 19:56:07;;;;;;;32.78;16.00;;;;;;;19.57;83.15;100251.50;5048085;56;1245773;-72
2023/07/20 20:01:13;;;;;;;22.95;12.33;;;;;;;19.53;83.70;100246.20;5069081;56;1260902;-72
2023/07/20 20:06:19;;;;;;;10.18;4.62;;;;;;;19.54;84.40;100252.41;5044790;56;1256353;-74
2023/07/20 20:11:24;;;;;;;7.20;3.87;;;;;;;19.54;84.92;100249.72;5035858;56;1252964;-70
2023/07/20 20:16:31;;;;;;;21.25;10.15;;;;;;;19.53;85.15;100256.09;5062511;56;1256673;-71
2023/07/20 20:21:37;;;;;;;10.38;6.15;;;;;;;19.31;84.28;100260.45;5054896;57;1239834;-72
2023/07/20 20:26:43;;;;;;;8.58;4.55;;;;;;;18.92;84.42;100269.50;4998273;57;1255315;-73
2023/07/20 20:31:49;;;;;;;20.73;13.60;;;;;;;18.64;85.51;100262.17;5032729;57;1239598;-76
2023/07/20 20:36:56;;;;;;;130.18;67.90;;;;;;;18.60;87.11;100263.86;5056914;56;1142940;-76
2023/07/20 20:42:02;;;;;;;30.40;16.90;;;;;;;18.62;88.21;100271.72;5044152;56;1260017;-73
2023/07/20 20:47:08;;;;;;;11.18;7.10;;;;;;;18.61;88.38;100266.87;5032031;56;1250179;-74
2023/07/20 20:52:17;;;;;;;44.15;19.62;;;;;;;18.63;89.40;100268.53;5061939;56;1257986;-72
2023/07/20 20:57:22;;;;;;;14.68;8.05;;;;;;;18.52;88.96;100272.40;5045821;56;1143369;-69
2023/07/20 21:02:28;;;;;;;5.90;3.27;;;;;;;18.31;88.69;100274.37;5024165;56;1251908;-71
2023/07/20 21:07:34;;;;;;;3.65;2.55;;;;;;;18.04;88.78;100285.00;5001942;56;1138976;-73
2023/07/20 21:12:39;;;;;;;3.20;2.55;;;;;;;17.87;89.73;100290.91;5031014;56;1138914;-72
2023/07/20 21:17:45;;;;;;;293.63;179.55;;;;;;;17.84;90.91;100291.27;5018428;57;1138830;-73
2023/07/20 21:22:52;;;;;;;89.70;55.45;;;;;;;17.97;92.14;100289.89;5012499;57;1147222;-71
2023/07/20 21:27:58;;;;;;;21.48;13.20;;;;;;;18.12;92.35;100286.83;5083184;57;1143163;-71
2023/07/20 21:33:03;;;;;;;6.53;4.50;;;;;;;18.21;91.90;100291.13;5051424;57;1209878;-71
2023/07/20 21:38:10;;;;;;;4.17;2.83;;;;;;;18.16;90.96;100290.33;5040998;57;1152654;-69
2023/07/20 21:43:15;;;;;;;2.83;1.85;;;;;;;18.13;90.78;100300.04;5014739;57;1138669;-73
2023/07/20 21:48:21;;;;;;;2.55;1.60;;;;;;;18.08;90.61;100306.91;5048893;57;1138781;-74
2023/07/20 21:53:27;;;;;;;3.30;2.37;;;;;;;18.04;90.66;100310.42;5042387;57;1138675;-70
2023/07/20 21:58:32;;;;;;;9.93;6.05;;;;;;;18.00;90.57;100312.30;5022681;57;1138916;-71
2023/07/20 22:03:38;;;;;;;21.77;9.98;;;;;;;17.82;89.36;100323.20;5061081;57;1138812;-69
2023/07/20 22:08:43;;;;;;;26.93;10.37;;;;;;;17.67;90.39;100316.88;4960210;58;1140943;-74
2023/07/20 22:13:49;;;;;;;11.57;4.72;;;;;;;17.46;90.35;100315.53;4986507;57;1143032;-69
2023/07/20 22:18:55;;;;;;;4.08;3.67;;;;;;;17.46;91.94;100318.20;5038426;57;1141094;-70
2023/07/20 22:24:00;;;;;;;4.83;1.92;;;;;;;17.52;92.42;100321.55;4983415;56;1138883;-74
2023/07/20 22:29:07;;;;;;;5.08;2.02;;;;;;;17.61;92.38;100326.38;5042783;56;1138951;-70
2023/07/20 22:34:13;;;;;;;4.72;2.83;;;;;;;17.65;91.84;100328.25;5055791;56;1138670;-72
2023/07/20 22:39:18;;;;;;;2.50;2.30;;;;;;;17.43;90.25;100329.72;5041552;57;1138931;-72
2023/07/20 22:44:24;;;;;;;5.33;2.00;;;;;;;17.23;91.33;100331.92;5041925;57;1138517;-71
2023/07/20 22:49:33;;;;;;;1.82;1.57;;;;;;;17.17;91.88;100324.05;5057673;57;1138801;-71
2023/07/20 22:54:38;;;;;;;3.20;1.40;;;;;;;17.17;91.88;100324.05;5057804;57;1138639;-72
2023/07/20 22:59:44;;;;;;;2.77;1.57;;;;;;;17.18;91.39;100329.73;5013948;57;1138560;-71
2023/07/20 23:04:52;;;;;;;1.40;1.30;;;;;;;17.11;91.57;100326.04;5028996;57;1139183;-73
2023/07/20 23:09:57;;;;;;;1.80;1.20;;;;;;;17.10;91.78;100324.40;5066963;57;1138623;-72